Dominion, Canada
Current Conditions -  °F | °C
As of 10:00 PM on Friday 19 Dec 2014 (Local Time) from CYQY Reporting Station
Snow Showers Snow Showers  
Wind Chill: 21°   Ceiling: 700
Heat Index: 32°   Visibility: 2mi
Dew Point: 30°   Wind: 16mph
Humidity: 93%   Direction: 340°NNW
Pressure: 29.81"   Gusts: 24mph
Location:  46.22°N, 60.02°W
Report Text: CYQY 200200Z 34014G21KT 2SM -SHSN BKN007 OVC014 00/M01 A2981 RMK ST5SC3 SLP097
Loading
Personal Weather Stations






























Interactive Weather Map New forecast layout! Learn more

10-Day Weather Forecast

Advertisements
Track Severe Weather on mobile